createdAt,value
2023-04-08T00:01:26.623Z,32.50
2023-04-08T00:03:55.604Z,30.50
2023-04-08T00:06:24.497Z,29.20
2023-04-08T00:08:53.505Z,35.30
2023-04-08T00:11:21.722Z,28.70
2023-04-08T00:13:49.939Z,32.30
2023-04-08T00:16:18.235Z,34.60
2023-04-08T00:18:46.470Z,33.20
2023-04-08T00:21:16.788Z,39.50
2023-04-08T00:23:45.018Z,37.40
2023-04-08T00:26:15.760Z,39.50
2023-04-08T00:28:45.295Z,33.00
2023-04-08T00:31:13.557Z,33.70
2023-04-08T00:33:41.805Z,32.80
2023-04-08T00:36:11.747Z,36.50
2023-04-08T00:38:40.406Z,36.40
2023-04-08T00:41:08.823Z,32.20
2023-04-08T00:43:37.078Z,34.60
2023-04-08T00:46:06.151Z,32.70
2023-04-08T00:48:34.539Z,36.90
2023-04-08T00:51:03.807Z,34.20
2023-04-08T00:53:32.948Z,31.80
2023-04-08T00:56:01.661Z,33.50
2023-04-08T00:58:30.835Z,31.00
2023-04-08T01:01:07.298Z,30.90
2023-04-08T01:03:59.598Z,34.20
2023-04-08T01:06:42.976Z,29.90
2023-04-08T01:09:13.900Z,34.10
2023-04-08T01:11:45.337Z,37.40
2023-04-08T01:14:20.659Z,37.70
2023-04-08T01:16:49.328Z,34.10
2023-04-08T01:19:45.126Z,38.80
2023-04-08T01:22:19.409Z,43.70
2023-04-08T01:24:55.045Z,38.60
2023-04-08T01:27:24.098Z,34.80
2023-04-08T01:29:53.794Z,40.20
2023-04-08T01:32:25.323Z,35.70
2023-04-08T01:34:56.937Z,31.80
2023-04-08T01:37:28.403Z,34.50
2023-04-08T01:39:57.763Z,33.90
2023-04-08T01:42:28.801Z,30.70
2023-04-08T01:44:59.503Z,33.60
2023-04-08T01:47:29.756Z,34.40
2023-04-08T01:50:00.043Z,38.90
2023-04-08T01:52:30.452Z,34.10
2023-04-08T01:54:59.688Z,34.30
2023-04-08T01:57:32.129Z,34.80
2023-04-08T02:00:04.325Z,35.90
2023-04-08T02:02:49.113Z,33.50
2023-04-08T02:05:17.817Z,39.00
2023-04-08T02:07:48.141Z,33.90
2023-04-08T02:10:16.852Z,34.60
2023-04-08T02:12:46.948Z,34.50
2023-04-08T02:15:15.921Z,34.60
2023-04-08T02:17:48.039Z,33.20
2023-04-08T02:20:24.306Z,31.70
2023-04-08T02:23:15.544Z,32.60
2023-04-08T02:25:47.361Z,31.10
2023-04-08T02:28:18.092Z,36.80
2023-04-08T02:30:52.145Z,36.20
2023-04-08T02:33:23.283Z,32.30
2023-04-08T02:35:56.146Z,40.60
2023-04-08T02:38:24.694Z,36.70
2023-04-08T02:40:53.765Z,34.50
2023-04-08T02:43:27.052Z,40.30
2023-04-08T02:45:55.631Z,34.40
2023-04-08T02:48:23.866Z,35.50
2023-04-08T02:50:52.121Z,35.20
2023-04-08T02:53:20.431Z,36.90
2023-04-08T02:55:49.036Z,34.70
2023-04-08T02:58:17.471Z,33.00
2023-04-08T03:00:46.779Z,31.80
2023-04-08T03:03:15.131Z,33.80
2023-04-08T03:05:43.997Z,35.20
2023-04-08T03:08:12.264Z,31.70
2023-04-08T03:10:41.000Z,32.50
2023-04-08T03:13:09.399Z,34.70
2023-04-08T03:15:37.888Z,32.50
2023-04-08T03:18:06.345Z,35.60
2023-04-08T03:20:34.936Z,35.50
2023-04-08T03:23:03.232Z,34.30
2023-04-08T03:25:31.915Z,43.40
2023-04-08T03:28:00.141Z,35.00
2023-04-08T03:30:28.705Z,37.60
2023-04-08T03:32:56.935Z,33.90
2023-04-08T03:35:25.913Z,42.40
2023-04-08T03:37:55.544Z,42.80
2023-04-08T03:40:23.880Z,38.60
2023-04-08T03:42:52.693Z,35.20
2023-04-08T03:45:21.938Z,42.90
2023-04-08T03:47:50.370Z,43.90
2023-04-08T03:50:18.661Z,38.60
2023-04-08T03:52:46.956Z,33.40
2023-04-08T03:55:15.576Z,34.40
2023-04-08T03:57:45.433Z,35.70
2023-04-08T04:00:14.441Z,34.80
2023-04-08T04:02:42.606Z,41.00
2023-04-08T04:05:11.339Z,45.20
2023-04-08T04:07:39.606Z,39.00
2023-04-08T04:10:09.126Z,41.60
2023-04-08T04:12:39.453Z,36.00
2023-04-08T04:15:08.330Z,37.60
2023-04-08T04:17:36.715Z,43.80
2023-04-08T04:20:06.820Z,50.00
2023-04-08T04:22:36.410Z,45.20
2023-04-08T04:25:04.918Z,40.50
2023-04-08T04:27:33.167Z,53.30
2023-04-08T04:30:01.675Z,49.70
2023-04-08T04:32:29.878Z,43.10
2023-04-08T04:34:58.055Z,41.60
2023-04-08T04:37:26.628Z,45.80
2023-04-08T04:39:54.813Z,41.20
2023-04-08T04:42:25.549Z,44.90
2023-04-08T04:44:54.522Z,48.70
2023-04-08T04:47:23.588Z,64.10
2023-04-08T04:49:52.572Z,61.30
2023-04-08T04:52:23.189Z,52.30
2023-04-08T04:54:51.726Z,54.90
2023-04-08T04:57:19.951Z,48.60
2023-04-08T04:59:48.391Z,52.80
2023-04-08T05:02:19.193Z,57.30
2023-04-08T05:04:47.596Z,56.20
2023-04-08T05:07:15.991Z,48.30
2023-04-08T05:09:48.516Z,43.90
2023-04-08T05:12:17.042Z,41.50
2023-04-08T05:14:48.074Z,41.50
2023-04-08T05:17:16.636Z,45.80
2023-04-08T05:19:44.835Z,43.10
2023-04-08T05:22:13.025Z,39.60
2023-04-08T05:24:41.520Z,35.80
2023-04-08T05:27:09.718Z,36.70
2023-04-08T05:29:38.014Z,36.00
2023-04-08T05:32:06.835Z,35.20
2023-04-08T05:34:36.879Z,37.70
2023-04-08T05:37:06.180Z,39.70
2023-04-08T05:39:34.435Z,34.40
2023-04-08T05:42:03.698Z,38.70
2023-04-08T05:44:32.748Z,36.10
2023-04-08T05:47:01.237Z,36.60
2023-04-08T05:49:30.189Z,37.40
2023-04-08T05:51:58.370Z,45.20
2023-04-08T05:54:26.625Z,39.30
2023-04-08T05:56:54.825Z,39.60
2023-04-08T05:59:23.040Z,35.30
2023-04-08T06:01:51.367Z,39.50
2023-04-08T06:04:20.193Z,36.20
2023-04-08T06:06:51.301Z,40.10
2023-04-08T06:09:19.532Z,43.80
2023-04-08T06:11:49.500Z,43.40
2023-04-08T06:14:19.459Z,53.70
2023-04-08T06:16:47.961Z,38.80
2023-04-08T06:19:16.957Z,36.10
2023-04-08T06:21:45.169Z,32.20
2023-04-08T06:24:15.085Z,32.20
2023-04-08T06:26:43.345Z,40.40
2023-04-08T06:29:11.802Z,36.50
2023-04-08T06:31:40.082Z,44.00
2023-04-08T06:34:11.613Z,29.80
2023-04-08T06:36:42.441Z,32.90
2023-04-08T06:39:10.981Z,36.90
2023-04-08T06:41:42.039Z,29.70
2023-04-08T06:44:20.922Z,30.00
2023-04-08T06:46:49.149Z,32.80
2023-04-08T06:49:18.038Z,35.20
2023-04-08T06:51:46.331Z,32.70
2023-04-08T06:54:14.680Z,32.20
2023-04-08T06:56:43.221Z,34.70
2023-04-08T06:59:12.198Z,34.50
2023-04-08T07:01:41.559Z,38.70
2023-04-08T07:04:10.590Z,32.90
2023-04-08T07:06:38.811Z,32.80
2023-04-08T07:09:08.127Z,31.10
2023-04-08T07:11:36.324Z,35.90
2023-04-08T07:14:04.628Z,30.70
2023-04-08T07:16:32.891Z,37.30
2023-04-08T07:19:02.092Z,27.50
2023-04-08T07:21:32.044Z,34.70
2023-04-08T07:24:01.515Z,29.10
2023-04-08T07:26:29.795Z,30.80
2023-04-08T07:28:58.088Z,28.60
2023-04-08T07:31:26.572Z,35.40
2023-04-08T07:33:54.912Z,37.00
2023-04-08T07:36:23.204Z,32.70
2023-04-08T07:38:54.613Z,23.80
2023-04-08T07:41:23.951Z,31.40
2023-04-08T07:43:52.371Z,29.00
2023-04-08T07:46:23.765Z,26.90
2023-04-08T07:48:52.351Z,25.40
2023-04-08T07:51:21.076Z,28.60
2023-04-08T07:53:49.830Z,27.90
2023-04-08T07:56:18.874Z,33.80
2023-04-08T07:58:47.705Z,23.90
2023-04-08T08:01:23.869Z,36.80
2023-04-08T08:03:53.585Z,31.20
2023-04-08T08:06:22.397Z,31.50
2023-04-08T08:08:50.732Z,26.20
2023-04-08T08:11:19.640Z,35.40
2023-04-08T08:13:47.944Z,32.50
2023-04-08T08:16:16.305Z,24.80
2023-04-08T08:18:47.742Z,27.60
2023-04-08T08:21:18.068Z,27.20
2023-04-08T08:23:46.344Z,23.80
2023-04-08T08:26:14.622Z,21.70
2023-04-08T08:28:43.591Z,25.50
2023-04-08T08:31:12.786Z,25.30
2023-04-08T08:33:45.943Z,22.80
2023-04-08T08:36:15.421Z,30.10
2023-04-08T08:38:45.956Z,26.00
2023-04-08T08:41:16.212Z,24.10
2023-04-08T08:43:49.143Z,24.40
2023-04-08T08:46:22.060Z,25.10
2023-04-08T08:48:50.536Z,25.10
2023-04-08T08:51:19.624Z,27.50
2023-04-08T08:53:51.345Z,28.30
2023-04-08T08:56:22.214Z,32.30
2023-04-08T08:58:51.834Z,28.60
2023-04-08T09:01:45.287Z,23.70
2023-04-08T09:04:20.132Z,29.00
2023-04-08T09:07:10.874Z,26.50
2023-04-08T09:09:50.683Z,23.90
2023-04-08T09:12:21.756Z,27.30
2023-04-08T09:14:50.514Z,27.10
2023-04-08T09:17:39.107Z,29.70
2023-04-08T09:20:12.546Z,24.60
2023-04-08T09:23:01.484Z,27.10
2023-04-08T09:25:32.940Z,26.40
2023-04-08T09:28:03.027Z,25.10
2023-04-08T09:30:33.228Z,21.90
2023-04-08T09:33:07.577Z,32.20
2023-04-08T09:35:36.806Z,30.20
2023-04-08T09:38:07.341Z,27.20
2023-04-08T09:40:37.473Z,26.40
2023-04-08T09:43:08.207Z,31.60
2023-04-08T09:45:37.978Z,27.90
2023-04-08T09:48:24.316Z,27.10
2023-04-08T09:50:56.405Z,34.80
2023-04-08T09:53:36.760Z,24.50
2023-04-08T09:56:11.064Z,27.10
2023-04-08T09:59:00.230Z,30.90
2023-04-08T10:01:40.404Z,27.70
2023-04-08T10:04:12.814Z,35.90
2023-04-08T10:06:42.976Z,28.50
2023-04-08T10:09:14.599Z,33.40
2023-04-08T10:11:43.098Z,26.00
2023-04-08T10:14:11.726Z,26.10
2023-04-08T10:16:40.194Z,23.50
2023-04-08T10:19:42.057Z,29.40
2023-04-08T10:22:29.211Z,28.20
2023-04-08T10:25:15.939Z,26.90
2023-04-08T10:27:46.396Z,30.60
2023-04-08T10:30:43.936Z,31.70
2023-04-08T10:33:37.866Z,30.90
2023-04-08T10:38:55.130Z,32.80
2023-04-08T10:41:27.463Z,24.00
2023-04-08T10:43:56.545Z,23.10
2023-04-08T10:46:28.409Z,21.80
2023-04-08T10:49:02.920Z,21.20
2023-04-08T10:51:34.384Z,27.90
2023-04-08T10:54:14.004Z,20.60
2023-04-08T10:56:52.720Z,25.80
2023-04-08T10:59:33.231Z,25.90
2023-04-08T11:02:02.923Z,24.80
2023-04-08T11:04:32.310Z,26.90
2023-04-08T11:07:16.141Z,22.90
2023-04-08T11:09:44.372Z,23.60
2023-04-08T11:12:12.810Z,23.40
2023-04-08T11:14:41.452Z,23.60
2023-04-08T11:17:11.145Z,27.90
2023-04-08T11:19:39.447Z,27.40
2023-04-08T11:22:11.476Z,26.00
2023-04-08T11:24:40.757Z,23.00
2023-04-08T11:27:09.240Z,23.10
2023-04-08T11:29:39.461Z,21.00
2023-04-08T11:32:09.212Z,22.80
2023-04-08T11:34:40.868Z,28.70
2023-04-08T11:37:12.832Z,24.10
2023-04-08T11:39:43.984Z,27.60
2023-04-08T11:42:33.461Z,29.00
2023-04-08T11:45:01.875Z,24.40
2023-04-08T11:47:34.382Z,19.10
2023-04-08T11:50:03.800Z,27.30
2023-04-08T11:52:45.629Z,30.20
2023-04-08T11:55:33.399Z,20.10
2023-04-08T11:58:21.794Z,25.00
2023-04-08T12:00:51.028Z,22.20
2023-04-08T12:03:19.275Z,24.90
2023-04-08T12:05:48.860Z,28.90
2023-04-08T12:08:18.859Z,22.20
2023-04-08T12:10:48.926Z,23.40
2023-04-08T12:13:17.729Z,24.70
2023-04-08T12:15:46.112Z,21.30
2023-04-08T12:18:15.996Z,23.40
2023-04-08T12:20:44.958Z,26.00
2023-04-08T12:23:13.307Z,26.20
2023-04-08T12:25:41.514Z,29.60
2023-04-08T12:28:11.645Z,22.50
2023-04-08T12:30:41.162Z,24.00
2023-04-08T12:33:09.468Z,19.50
2023-04-08T12:35:38.059Z,24.50
2023-04-08T12:38:06.387Z,19.70
2023-04-08T12:40:34.581Z,22.00
2023-04-08T12:43:03.279Z,22.90
2023-04-08T12:45:34.330Z,26.00
2023-04-08T12:48:05.334Z,26.40
2023-04-08T12:50:33.613Z,26.80
2023-04-08T12:53:02.271Z,27.00
2023-04-08T12:55:30.761Z,24.90
2023-04-08T12:58:02.279Z,27.30
2023-04-08T13:00:32.615Z,28.20
2023-04-08T13:03:01.486Z,37.70
2023-04-08T13:05:42.730Z,23.70
2023-04-08T13:08:13.230Z,22.70
2023-04-08T13:10:42.390Z,18.20
2023-04-08T13:13:10.782Z,24.40
2023-04-08T13:15:40.151Z,26.60
2023-04-08T13:18:08.644Z,28.40
2023-04-08T13:20:37.588Z,25.30
2023-04-08T13:23:05.971Z,21.80
2023-04-08T13:25:34.381Z,29.10
2023-04-08T13:28:05.309Z,20.50
2023-04-08T13:30:34.853Z,19.10
2023-04-08T13:33:04.325Z,21.50
2023-04-08T13:35:33.040Z,23.90
2023-04-08T13:38:01.374Z,22.00
2023-04-08T13:40:30.283Z,22.10
2023-04-08T13:43:03.317Z,22.60
2023-04-08T13:45:34.300Z,22.40
2023-04-08T13:48:03.274Z,19.60
2023-04-08T13:50:31.503Z,19.50
2023-04-08T13:52:59.657Z,19.30
2023-04-08T13:55:28.116Z,25.30
2023-04-08T13:57:56.363Z,21.10
2023-04-08T14:00:25.843Z,21.00
2023-04-08T14:02:54.203Z,19.40
2023-04-08T14:05:22.558Z,19.10
2023-04-08T14:07:51.489Z,20.40
2023-04-08T14:10:19.895Z,18.80
2023-04-08T14:12:48.154Z,17.80
2023-04-08T14:15:16.504Z,19.30
2023-04-08T14:17:46.413Z,20.00
2023-04-08T14:20:15.047Z,21.10
2023-04-08T14:22:43.283Z,18.50
2023-04-08T14:25:13.665Z,22.30
2023-04-08T14:27:54.692Z,20.20
2023-04-08T14:30:29.337Z,18.40
2023-04-08T14:32:59.393Z,14.90
2023-04-08T14:35:27.815Z,22.30
2023-04-08T14:37:57.189Z,17.50
2023-04-08T14:40:25.590Z,20.30
2023-04-08T14:42:55.424Z,18.40
2023-04-08T14:45:23.976Z,19.60
2023-04-08T14:48:02.130Z,18.90
2023-04-08T14:50:31.836Z,20.30
2023-04-08T14:53:00.187Z,18.70
2023-04-08T14:55:30.228Z,15.60
2023-04-08T14:58:00.941Z,14.90
2023-04-08T15:00:32.413Z,18.40
2023-04-08T15:03:01.510Z,14.70
2023-04-08T15:05:30.044Z,15.20
2023-04-08T15:07:58.479Z,25.90
2023-04-08T15:10:31.019Z,18.70
2023-04-08T15:12:59.415Z,15.10
2023-04-08T15:15:27.926Z,18.90
2023-04-08T15:17:58.312Z,17.80
2023-04-08T15:20:26.801Z,22.60
2023-04-08T15:23:00.258Z,16.80
2023-04-08T15:25:28.505Z,14.70
2023-04-08T15:27:59.034Z,19.60
2023-04-08T15:30:30.463Z,20.50
2023-04-08T15:32:58.950Z,18.30
2023-04-08T15:35:28.996Z,21.20
2023-04-08T15:38:01.370Z,18.60
2023-04-08T15:40:32.346Z,20.20
2023-04-08T15:43:00.625Z,15.50
2023-04-08T15:45:28.803Z,15.50
2023-04-08T15:47:57.329Z,18.30
2023-04-08T15:50:29.350Z,15.70
2023-04-08T15:52:57.718Z,15.50
2023-04-08T15:55:26.745Z,13.70
2023-04-08T15:57:56.964Z,18.50
2023-04-08T16:00:26.320Z,25.50
2023-04-08T16:02:54.683Z,17.00
2023-04-08T16:05:23.550Z,23.90
2023-04-08T16:07:52.314Z,19.30
2023-04-08T16:10:21.994Z,18.60
2023-04-08T16:12:52.379Z,19.70
2023-04-08T16:15:22.206Z,20.60
2023-04-08T16:17:52.773Z,16.60
2023-04-08T16:20:21.895Z,22.90
2023-04-08T16:22:50.476Z,23.70
2023-04-08T16:25:23.482Z,21.50
2023-04-08T16:27:52.038Z,16.80
2023-04-08T16:30:22.553Z,20.10
2023-04-08T16:32:51.788Z,21.80
2023-04-08T16:35:23.408Z,20.80
2023-04-08T16:37:51.671Z,22.00
2023-04-08T16:40:23.230Z,20.00
2023-04-08T16:42:51.520Z,21.60
2023-04-08T16:45:22.106Z,23.30
2023-04-08T16:47:52.902Z,21.10
2023-04-08T16:50:22.527Z,17.90
2023-04-08T16:52:51.198Z,18.50
2023-04-08T16:55:22.876Z,23.50
2023-04-08T16:57:51.198Z,19.70
2023-04-08T17:00:21.113Z,17.80
2023-04-08T17:02:49.840Z,25.00
2023-04-08T17:05:18.748Z,21.30
2023-04-08T17:07:46.913Z,26.40
2023-04-08T17:10:16.052Z,22.80
2023-04-08T17:12:46.657Z,23.70
2023-04-08T17:15:16.376Z,21.40
2023-04-08T17:17:44.898Z,28.50
2023-04-08T17:20:14.532Z,25.30
2023-04-08T17:22:42.840Z,39.50
2023-04-08T17:25:14.097Z,41.60
2023-04-08T17:30:30.665Z,30.60
2023-04-08T17:32:59.110Z,35.20
2023-04-08T17:35:28.229Z,36.60
2023-04-08T17:37:56.665Z,39.70
2023-04-08T17:40:29.621Z,40.40
2023-04-08T17:43:02.446Z,29.90
2023-04-08T17:45:31.458Z,34.70
2023-04-08T17:47:59.797Z,38.10
2023-04-08T17:50:28.191Z,39.40
2023-04-08T17:53:03.993Z,32.50
2023-04-08T17:55:32.449Z,33.80
2023-04-08T17:58:04.908Z,36.80
2023-04-08T18:00:33.464Z,37.50
2023-04-08T18:03:01.883Z,44.60
2023-04-08T18:05:33.236Z,35.80
2023-04-08T18:08:03.537Z,25.80
2023-04-08T18:10:32.411Z,26.60
2023-04-08T18:15:37.879Z,29.00
2023-04-08T18:18:12.404Z,23.50
2023-04-08T18:20:41.211Z,25.90
2023-04-08T18:23:11.797Z,25.50
2023-04-08T18:25:43.110Z,24.10
2023-04-08T18:28:13.900Z,24.30
2023-04-08T18:30:43.472Z,21.40
2023-04-08T18:33:12.632Z,25.60
2023-04-08T18:35:41.027Z,28.60
2023-04-08T18:38:09.507Z,28.50
2023-04-08T18:40:50.086Z,24.10
2023-04-08T18:43:18.488Z,23.60
2023-04-08T18:45:48.127Z,26.80
2023-04-08T18:48:18.556Z,21.50
2023-04-08T18:50:47.771Z,25.50
2023-04-08T18:53:18.751Z,23.80
2023-04-08T18:55:47.565Z,25.40
2023-04-08T18:58:16.421Z,24.90
2023-04-08T19:00:53.416Z,31.00
2023-04-08T19:03:21.758Z,30.30
2023-04-08T19:05:50.161Z,28.80
2023-04-08T19:08:21.792Z,28.20
2023-04-08T19:10:52.863Z,32.80
2023-04-08T19:13:26.421Z,31.40
2023-04-08T19:15:54.850Z,33.90
2023-04-08T19:18:27.080Z,42.20
2023-04-08T19:20:58.417Z,40.10
2023-04-08T19:23:29.715Z,62.40
2023-04-08T19:26:05.408Z,51.80
2023-04-08T19:28:36.435Z,49.60
2023-04-08T19:31:20.618Z,53.90
2023-04-08T19:33:49.276Z,41.90
2023-04-08T19:36:22.640Z,46.70
2023-04-08T19:38:51.341Z,50.00
2023-04-08T19:41:22.130Z,48.80
2023-04-08T19:43:52.522Z,48.70
2023-04-08T19:46:24.793Z,43.20
2023-04-08T19:49:03.410Z,49.80
2023-04-08T19:51:32.991Z,41.90
2023-04-08T19:54:02.094Z,41.70
2023-04-08T19:56:34.501Z,48.30
2023-04-08T19:59:03.612Z,51.50
2023-04-08T20:01:35.994Z,51.70
2023-04-08T20:04:05.397Z,46.70
2023-04-08T20:06:36.783Z,52.70
2023-04-08T20:09:06.582Z,54.90
2023-04-08T20:11:35.417Z,52.70
2023-04-08T20:14:05.142Z,68.50
2023-04-08T20:16:33.273Z,63.50
2023-04-08T20:19:01.737Z,73.30
2023-04-08T20:21:29.980Z,80.80
2023-04-08T20:23:58.375Z,77.20
2023-04-08T20:26:26.737Z,63.80
2023-04-08T20:28:59.033Z,58.10
2023-04-08T20:31:28.396Z,53.90
2023-04-08T20:33:59.375Z,56.10
2023-04-08T20:36:28.426Z,58.20
2023-04-08T20:38:57.226Z,60.70
2023-04-08T20:41:27.336Z,59.90
2023-04-08T20:43:58.564Z,63.70
2023-04-08T20:46:27.741Z,53.20
2023-04-08T20:48:57.126Z,71.90
2023-04-08T20:51:27.544Z,60.30
2023-04-08T20:53:57.127Z,58.10
2023-04-08T20:56:26.745Z,59.60
2023-04-08T20:58:56.388Z,62.80
2023-04-08T21:01:27.785Z,129.40
2023-04-08T21:03:57.380Z,141.80
2023-04-08T21:06:27.923Z,176.60
2023-04-08T21:08:56.303Z,93.60
2023-04-08T21:11:25.563Z,91.30
2023-04-08T21:13:54.176Z,50.60
2023-04-08T21:16:25.231Z,58.90
2023-04-08T21:18:53.622Z,67.20
2023-04-08T21:21:21.934Z,46.60
2023-04-08T21:23:50.531Z,61.80
2023-04-08T21:26:18.854Z,57.20
2023-04-08T21:28:47.111Z,75.50
2023-04-08T21:31:15.921Z,64.70
2023-04-08T21:33:46.900Z,72.70
2023-04-08T21:36:15.262Z,59.20
2023-04-08T21:38:43.667Z,57.40
2023-04-08T21:41:11.895Z,59.30
2023-04-08T21:43:41.597Z,62.20
2023-04-08T21:46:09.966Z,58.20
2023-04-08T21:48:39.125Z,59.90
2023-04-08T21:51:08.649Z,49.10
2023-04-08T21:53:39.642Z,43.60
2023-04-08T21:56:08.772Z,42.80
2023-04-08T21:58:37.272Z,54.10
2023-04-08T22:01:05.539Z,60.10
2023-04-08T22:03:34.355Z,50.90
2023-04-08T22:06:02.701Z,46.90
2023-04-08T22:08:32.607Z,50.80
2023-04-08T22:11:01.092Z,50.90
2023-04-08T22:13:29.434Z,57.60
2023-04-08T22:15:57.717Z,43.70
2023-04-08T22:18:26.422Z,43.30
2023-04-08T22:20:54.670Z,44.60
2023-04-08T22:23:22.857Z,50.30
2023-04-08T22:25:51.930Z,51.80
2023-04-08T22:28:20.444Z,57.60
2023-04-08T22:30:48.891Z,58.50
2023-04-08T22:33:18.216Z,55.00
2023-04-08T22:35:46.455Z,61.70
2023-04-08T22:38:15.868Z,65.40
2023-04-08T22:40:44.051Z,58.80
2023-04-08T22:43:12.246Z,56.80
2023-04-08T22:45:40.733Z,53.90
2023-04-08T22:48:09.047Z,48.60
2023-04-08T22:50:37.386Z,52.90
2023-04-08T22:53:05.678Z,52.60
2023-04-08T22:55:33.980Z,51.00
2023-04-08T22:58:02.433Z,52.70
2023-04-08T23:00:31.041Z,39.60
2023-04-08T23:02:59.363Z,41.00
2023-04-08T23:05:27.622Z,36.30
2023-04-08T23:07:56.008Z,38.50
2023-04-08T23:10:24.182Z,38.60
2023-04-08T23:12:52.608Z,38.80
2023-04-08T23:15:20.861Z,37.00
2023-04-08T23:17:49.188Z,36.40
2023-04-08T23:20:17.560Z,38.50
2023-04-08T23:22:46.566Z,39.00
2023-04-08T23:25:15.015Z,37.60
2023-04-08T23:27:46.085Z,35.80
2023-04-08T23:30:15.653Z,37.70
2023-04-08T23:32:43.902Z,38.80
2023-04-08T23:35:12.179Z,40.00
2023-04-08T23:37:40.568Z,43.30
2023-04-08T23:40:09.616Z,37.50
2023-04-08T23:42:37.782Z,40.80
2023-04-08T23:45:06.597Z,35.10
2023-04-08T23:47:37.656Z,36.30
2023-04-08T23:50:07.358Z,39.80
2023-04-08T23:52:36.098Z,41.60
2023-04-08T23:55:04.471Z,31.30
2023-04-08T23:57:32.651Z,34.80
